Nearby METAR Reports

 

KSJC - San Jose, California, USA
Distance from station: NE 9mi, 14km
Updated: Tue, 07-Jul-2020 5:53am CDT
Clear
Clear
 Wind from calm
Wind: Calm
Temperature: 57°F , 14°C
Dew Point: 48°F , 9°C
Humidity: 72%
Barometer: 29.96 inHg , 1014.6 hPa
Clouds: Clear
Visibility: 10 miles , 16 km
2020/07/07 10:53 KSJC 071053Z AUTO 00000KT 10SM CLR 14/09 A2996 RMK AO2 SLP144 T01440089
KNUQ - Moffett Nas/Mtn, California, USA
Distance from station: N 9mi, 14km
Updated: Tue, 07-Jul-2020 6:10am CDT

 Wind from calm
Wind: Calm
Temperature: 57°F , 14°C
Dew Point: 48°F , 9°C
Humidity: 72%
Barometer: 29.96 inHg , 1014.6 hPa
Visibility: 10 miles , 16 km
2020/07/07 11:10 KNUQ 071110Z AUTO 00000KT 10SM 14/09 A2996 RMK AO2
 
KPAO - Palo Alto, California, USA
Distance from station: NNW 14mi, 23km
Updated: Mon, 06-Jul-2020 5:47pm CDT
NOT Current
Clear
Clear
 Wind from NW
Wind: NW 20 mph , 31 km/h
Temperature: 75°F , 24°C
Dew Point: 45°F , 7°C
Humidity: 34%
Barometer: 29.97 inHg , 1014.9 hPa
Clouds: Clear
Visibility: 10 miles , 16 km
2020/07/06 22:47 KPAO 062247Z 31017KT 10SM SKC 24/07 A2997 RMK LAST
KRHV - San Jose/Reid, California, USA
Distance from station: ENE 12mi, 19km
Updated: Mon, 06-Jul-2020 11:47pm CDT
NOT Current
Clear
Clear
 Wind from NNW
Wind: NNW 8 mph , 13 km/h
Temperature: 63°F , 17°C
Dew Point: 48°F , 9°C
Humidity: 59%
Barometer: 29.99 inHg , 1015.6 hPa
Clouds: Clear
Visibility: 10 miles , 16 km
2020/07/07 04:47 KRHV 070447Z 33007KT 10SM SKC 17/09 A2999 RMK LAST
 
KOAK - Oakland, California, USA
Distance from station: NNW 31mi, 50km
Updated: Tue, 07-Jul-2020 5:53am CDT
Partly cloudy
Partly cloudy
 Wind from WSW
Wind: WSW 7 mph , 11 km/h
Temperature: 54°F , 12°C
Dew Point: 50°F , 10°C
Humidity: 88%
Barometer: 29.96 inHg , 1014.6 hPa
Clouds: Partly cloudy
Visibility: 10 miles , 16 km
Cloud details: Partly cloudy 1200 ft
2020/07/07 10:53 KOAK 071053Z 25006KT 10SM SCT012 12/10 A2996 RMK AO2 SLP144 T01170100 $
KSQL - San Carlos Airpo, California, USA
Distance from station: NW 21mi, 34km
Updated: Tue, 07-Jul-2020 6:15am CDT
Clear
Clear
 Wind from W
Wind: W 3 mph , 6 km/h
Temperature: 55°F , 13°C
Dew Point: 48°F , 9°C
Humidity: 77%
Barometer: 29.97 inHg , 1014.9 hPa
Clouds: Clear
Visibility: 10 miles , 16 km
2020/07/07 11:15 KSQL 071115Z AUTO 27003KT 10SM CLR 13/09 A2997 RMK AO2
 
KSFO - San Francisco, California, USA
Distance from station: NW 30mi, 49km
Updated: Tue, 07-Jul-2020 5:56am CDT
Few Clouds
Few Clouds
 Wind from W
Wind: W 18 mph , 30 km/h, Gust: 25 mph , 41 km/h
Temperature: 55°F , 13°C
Dew Point: 48°F , 9°C
Humidity: 77%
Barometer: 29.94 inHg , 1013.9 hPa
Clouds: Few Clouds
Visibility: 10 miles , 16 km
Cloud details: Few Clouds 600 ft
Few Clouds 1200 ft
2020/07/07 10:56 KSFO 071056Z 28016G22KT 10SM FEW006 FEW012 13/09 A2994 RMK AO2 SLP139 T01280089 $
KE16 - San Martin, California, USA
Distance from station: ESE 27mi, 43km
Updated: Tue, 09-Jun-2020 3:20pm CDT
NOT Current
Clear
Clear
 Wind from NW
Wind: NW 10 mph , 17 km/h
Temperature: 86°F , 30°C
Dew Point: 36°F , 2°C
Humidity: 17%
Barometer: 30.13 inHg , 1020.3 hPa
Clouds: Clear
Visibility: 10 miles , 16 km
2020/06/09 20:20 KE16 092020Z AUTO 31009KT 290V350 10SM CLR 30/02 A3013 RMK AO2 PWINO PNO
 
KWVI - Watsonville, California, USA
Distance from station: SSE 27mi, 44km
Updated: Tue, 07-Jul-2020 5:53am CDT
Overcast
Overcast
 Wind from ENE
Wind: ENE 3 mph , 6 km/h
Temperature: 54°F , 12°C
Dew Point: 52°F , 11°C
Humidity: 94%
Barometer: 29.98 inHg , 1015.2 hPa
Clouds: Overcast
Visibility: 10 miles , 16 km
Cloud details: Overcast 700 ft
2020/07/07 10:53 KWVI 071053Z AUTO 07003KT 10SM OVC007 12/11 A2998 RMK AO2 SLP152 T01220106
KHAF - Half Moon Bay, California, USA
Distance from station: WNW 31mi, 50km
Updated: Tue, 07-Jul-2020 6:15am CDT
Mist, Overcast
Mist, Overcast
 Wind from NNW
Wind: NNW 8 mph , 13 km/h
Temperature: 54°F , 12°C
Dew Point: 50°F , 10°C
Humidity: 88%
Barometer: 29.99 inHg , 1015.6 hPa
Summary: Mist
Clouds: Overcast
Visibility: 5 miles , 8 km
Cloud details: Overcast 1400 ft
2020/07/07 11:15 KHAF 071115Z AUTO 34007KT 5SM BR OVC014 12/10 A2999 RMK AO2
 
KHWD - Hayward, California, USA
Distance from station: N 28mi, 44km
Updated: Tue, 07-Jul-2020 5:54am CDT
Mostly cloudy
Mostly cloudy
 Wind from SW
Wind: SW 6 mph , 9 km/h
Temperature: 57°F , 14°C
Dew Point: 48°F , 9°C
Humidity: 72%
Barometer: 29.95 inHg , 1014.2 hPa
Clouds: Mostly cloudy
Visibility: 10 miles , 16 km
Cloud details: Mostly cloudy 1600 ft
2020/07/07 10:54 KHWD 071054Z AUTO 23005KT 10SM BKN016 14/09 A2995 RMK AO2 SLP151 T01390094
KLVK - Livermore, California, USA
Distance from station: NNE 31mi, 51km
Updated: Tue, 07-Jul-2020 5:53am CDT
Clear
Clear
 Wind from calm
Wind: Calm
Temperature: 54°F , 12°C
Dew Point: 48°F , 9°C
Humidity: 82%
Barometer: 29.94 inHg , 1013.9 hPa
Clouds: Clear
Visibility: 10 miles , 16 km
2020/07/07 10:53 KLVK 071053Z AUTO 00000KT 10SM CLR 12/09 A2994 RMK AO2 SLP135 T01220094